| time (UTC) | temp C | wind direction | speed KPH | gust KPH | rain 1hr cm | rain 24hr cm | rain mn cm | humidity % | barometer mb |
| 20260906210349 | 28 | 167 | 9.7 | 11.3 | 0.00 | 0.03 | 0.03 | 57 | 1014.1 |
| 20260906205844 | 28 | 134 | 8.0 | 9.7 | 0.00 | 0.03 | 0.03 | 59 | 1014.0 |
| 20260906205340 | 27 | 168 | 9.7 | 12.9 | 0.00 | 0.03 | 0.03 | 61 | 1014.1 |
| 20260906204836 | 27 | 169 | 14.5 | 16.1 | 0.00 | 0.03 | 0.03 | 58 | 1014.2 |
| 20260906204334 | 27 | 143 | 14.5 | 16.1 | 0.00 | 0.03 | 0.03 | 60 | 1014.3 |
| 20260906203834 | 27 | 157 | 12.9 | 16.1 | 0.00 | 0.03 | 0.03 | 58 | 1014.5 |
| 20260906203329 | 27 | 137 | 12.9 | 14.5 | 0.00 | 0.03 | 0.03 | 60 | 1014.5 |
| 20260906202826 | 27 | 153 | 16.1 | 17.7 | 0.00 | 0.03 | 0.03 | 59 | 1014.4 |
| 20260906202326 | 27 | 155 | 12.9 | 14.5 | 0.00 | 0.03 | 0.03 | 60 | 1014.6 |
| 20260906201821 | 27 | 132 | 6.4 | 8.0 | 0.00 | 0.03 | 0.03 | 62 | 1014.7 |
| 20260906201320 | 26 | 147 | 12.9 | 14.5 | 0.00 | 0.03 | 0.03 | 64 | 1014.9 |
| 20260906200816 | 26 | 183 | 8.0 | 9.7 | 0.00 | 0.03 | 0.03 | 63 | 1014.6 |
| 20260906200312 | 27 | 162 | 11.3 | 12.9 | 0.00 | 0.03 | 0.03 | 64 | 1014.9 |
| 20260906195807 | 27 | 180 | 4.8 | 8.0 | 0.00 | 0.03 | 0.03 | 65 | 1014.6 |
| 20260906195306 | 27 | 92 | 9.7 | 11.3 | 0.00 | 0.03 | 0.03 | 64 | 1014.6 |
| 20260906194759 | 26 | 126 | 8.0 | 9.7 | 0.00 | 0.03 | 0.03 | 66 | 1014.9 |
| 20260906194254 | 25 | 153 | 8.0 | 9.7 | 0.00 | 0.03 | 0.03 | 65 | 1014.7 |
| 20260906193749 | 26 | 163 | 12.9 | 16.1 | 0.00 | 0.03 | 0.03 | 66 | 1014.7 |
| 20260906193243 | 26 | 158 | 9.7 | 14.5 | 0.00 | 0.03 | 0.03 | 68 | 1014.9 |
| 20260906192740 | 26 | 184 | 14.5 | 22.5 | 0.00 | 0.03 | 0.03 | 64 | 1014.7 |
| 20260906192234 | 26 | 177 | 6.4 | 8.0 | 0.00 | 0.03 | 0.03 | 66 | 1015.0 |
| 20260906191733 | 26 | 176 | 12.9 | 14.5 | 0.00 | 0.03 | 0.03 | 67 | 1015.2 |
| 20260906191228 | 25 | 184 | 6.4 | 8.0 | 0.00 | 0.03 | 0.03 | 66 | 1015.3 |
| 20260906190722 | 26 | 155 | 11.3 | 14.5 | 0.00 | 0.03 | 0.03 | 64 | 1015.2 |
| 20260906190216 | 25 | 194 | 9.7 | 11.3 | 0.00 | 0.03 | 0.03 | 67 | 1015.2 |
| 20260906185716 | 25 | 184 | 11.3 | 14.5 | 0.00 | 0.03 | 0.03 | 66 | 1015.1 |
| 20260906185215 | 25 | 164 | 11.3 | 12.9 | 0.00 | 0.03 | 0.03 | 67 | 1015.1 |
| 20260906184709 | 25 | 173 | 12.9 | 12.9 | 0.00 | 0.03 | 0.03 | 65 | 1015.2 |
| 20260906184205 | 25 | 168 | 14.5 | 16.1 | 0.00 | 0.03 | 0.03 | 67 | 1015.5 |
| 20260906183701 | 25 | 163 | 9.7 | 9.7 | 0.00 | 0.03 | 0.03 | 69 | 1015.5 |
| 20260906183157 | 25 | 138 | 8.0 | 9.7 | 0.00 | 0.03 | 0.03 | 70 | 1015.5 |
| 20260906182656 | 25 | 137 | 4.8 | 8.0 | 0.00 | 0.03 | 0.03 | 68 | 1015.7 |
| 20260906182153 | 25 | 199 | 12.9 | 14.5 | 0.00 | 0.03 | 0.03 | 66 | 1015.7 |
| 20260906181648 | 24 | 196 | 8.0 | 11.3 | 0.00 | 0.03 | 0.03 | 70 | 1015.8 |
| 20260906181144 | 24 | 182 | 14.5 | 16.1 | 0.00 | 0.03 | 0.03 | 72 | 1015.9 |
| 20260906180638 | 24 | 182 | 14.5 | 17.7 | 0.00 | 0.03 | 0.03 | 72 | 1016.0 |
| 20260906180133 | 24 | 179 | 17.7 | 22.5 | 0.00 | 0.03 | 0.03 | 69 | 1015.9 |
| 20260906175631 | 23 | 149 | 12.9 | 14.5 | 0.00 | 0.03 | 0.03 | 72 | 1016.2 |
| 20260906175126 | 23 | 194 | 14.5 | 16.1 | 0.00 | 0.03 | 0.03 | 71 | 1016.0 |
| 20260906174624 | 23 | 163 | 14.5 | 14.5 | 0.00 | 0.03 | 0.03 | 74 | 1016.1 |
| 20260906174120 | 23 | 152 | 14.5 | 16.1 | 0.00 | 0.03 | 0.03 | 74 | 1016.1 |
| 20260906173615 | 23 | 174 | 16.1 | 20.9 | 0.00 | 0.03 | 0.03 | 76 | 1016.3 |
| 20260906173110 | 23 | 172 | 19.3 | 22.5 | 0.00 | 0.03 | 0.03 | 73 | 1016.1 |
| 20260906172610 | 23 | 176 | 20.9 | 27.4 | 0.00 | 0.03 | 0.03 | 74 | 1016.3 |
| 20260906172106 | 23 | 171 | 16.1 | 17.7 | 0.00 | 0.03 | 0.03 | 74 | 1016.3 |
| 20260906171605 | 23 | 148 | 17.7 | 24.1 | 0.00 | 0.03 | 0.03 | 75 | 1016.6 |
| 20260906171101 | 22 | 182 | 12.9 | 14.5 | 0.00 | 0.03 | 0.03 | 78 | 1016.3 |
| 20260906170556 | 22 | 180 | 20.9 | 24.1 | 0.00 | 0.03 | 0.03 | 75 | 1016.2 |
| 20260906170055 | 22 | 156 | 20.9 | 24.1 | 0.00 | 0.03 | 0.03 | 76 | 1016.2 |
| 20260906165552 | 22 | 150 | 14.5 | 16.1 | 0.00 | 0.03 | 0.03 | 76 | 1016.1 |
| 20260906165047 | 22 | 175 | 17.7 | 22.5 | 0.00 | 0.03 | 0.03 | 76 | 1016.3 |
| 20260906164546 | 22 | 180 | 20.9 | 22.5 | 0.00 | 0.03 | 0.03 | 76 | 1016.1 |
| 20260906164042 | 22 | 185 | 14.5 | 17.7 | 0.00 | 0.03 | 0.03 | 79 | 1016.3 |
| 20260906163537 | 22 | 157 | 16.1 | 17.7 | 0.00 | 0.03 | 0.03 | 77 | 1016.5 |
| 20260906163033 | 21 | 161 | 16.1 | 20.9 | 0.00 | 0.03 | 0.03 | 77 | 1016.5 |
| 20260906162530 | 22 | 158 | 11.3 | 12.9 | 0.00 | 0.03 | 0.03 | 77 | 1016.3 |
| 20260906162025 | 21 | 185 | 11.3 | 12.9 | 0.00 | 0.03 | 0.03 | 79 | 1016.3 |
| 20260906161520 | 21 | 170 | 14.5 | 17.7 | 0.00 | 0.03 | 0.03 | 77 | 1016.3 |
| 20260906161019 | 21 | 170 | 16.1 | 17.7 | 0.00 | 0.03 | 0.03 | 77 | 1016.3 |
| 20260906160518 | 21 | 167 | 14.5 | 16.1 | 0.00 | 0.03 | 0.03 | 76 | 1016.3 |
| 20260906160017 | 21 | 161 | 8.0 | 12.9 | 0.00 | 0.03 | 0.03 | 77 | 1016.3 |
| 20260906155514 | 21 | 189 | 9.7 | 12.9 | 0.00 | 0.03 | 0.03 | 78 | 1016.5 |
| 20260906155011 | 21 | 208 | 8.0 | 12.9 | 0.00 | 0.03 | 0.03 | 78 | 1016.6 |
| 20260906154506 | 20 | 182 | 6.4 | 8.0 | 0.00 | 0.03 | 0.03 | 79 | 1016.2 |
| 20260906154004 | 20 | 212 | 9.7 | 11.3 | 0.00 | 0.03 | 0.03 | 80 | 1016.3 |
| 20260906153503 | 20 | 180 | 6.4 | 8.0 | 0.00 | 0.03 | 0.03 | 79 | 1016.3 |
| 20260906152959 | 20 | 172 | 12.9 | 12.9 | 0.00 | 0.03 | 0.03 | 79 | 1016.6 |
| 20260906152453 | 20 | 178 | 8.0 | 9.7 | 0.00 | 0.03 | 0.03 | 79 | 1016.3 |
| 20260906151953 | 20 | 173 | 12.9 | 16.1 | 0.00 | 0.03 | 0.03 | 80 | 1016.5 |
| 20260906151448 | 19 | 199 | 8.0 | 9.7 | 0.00 | 0.03 | 0.03 | 82 | 1016.5 |
| 20260906150943 | 19 | 211 | 8.0 | 9.7 | 0.00 | 0.03 | 0.03 | 84 | 1016.2 |
| 20260906150438 | 19 | 173 | 11.3 | 12.9 | 0.00 | 0.03 | 0.03 | 83 | 1016.3 |
| 20260906145932 | 18 | 187 | 12.9 | 14.5 | 0.00 | 0.03 | 0.03 | 82 | 1016.6 |
| 20260906145432 | 18 | 170 | 11.3 | 11.3 | 0.00 | 0.03 | 0.03 | 84 | 1016.3 |
| 20260906144926 | 18 | 175 | 4.8 | 4.8 | 0.00 | 0.03 | 0.03 | 84 | 1016.6 |
| 20260906144421 | 18 | 205 | 3.2 | 3.2 | 0.00 | 0.03 | 0.03 | 85 | 1016.5 |
| 20260906143917 | 17 | 198 | 0.0 | 0.0 | 0.00 | 0.03 | 0.03 | 87 | 1016.5 |
| 20260906143412 | 17 | 210 | 1.6 | 1.6 | 0.00 | 0.03 | 0.03 | 86 | 1016.2 |
| 20260906142908 | 17 | 322 | 0.0 | 0.0 | 0.00 | 0.03 | 0.03 | 87 | 1016.5 |
| 20260906142407 | 17 | 305 | 3.2 | 3.2 | 0.00 | 0.03 | 0.03 | 87 | 1016.6 |
| 20260906141902 | 17 | 271 | 0.0 | 0.0 | 0.00 | 0.03 | 0.03 | 87 | 1016.7 |
| 20260906141402 | 17 | 273 | 0.0 | 1.6 | 0.00 | 0.03 | 0.03 | 88 | 1016.9 |
| 20260906140856 | 17 | 178 | 0.0 | 1.6 | 0.00 | 0.03 | 0.03 | 88 | 1016.8 |
| 20260906140351 | 17 | 155 | 1.6 | 1.6 | 0.00 | 0.03 | 0.03 | 89 | 1016.8 |
| 20260906135849 | 17 | 164 | 3.2 | 3.2 | 0.00 | 0.03 | 0.03 | 88 | 1016.9 |
| 20260906135343 | 17 | 161 | 3.2 | 3.2 | 0.00 | 0.03 | 0.03 | 88 | 1016.6 |
| 20260906134838 | 17 | 125 | 3.2 | 3.2 | 0.00 | 0.03 | 0.03 | 89 | 1016.6 |
| 20260906134333 | 17 | 138 | 0.0 | 1.6 | 0.00 | 0.03 | 0.03 | 90 | 1016.5 |
| 20260906133829 | 17 | 137 | 1.6 | 3.2 | 0.00 | 0.03 | 0.03 | 89 | 1016.5 |
| 20260906133324 | 17 | 23 | 0.0 | 1.6 | 0.00 | 0.03 | 0.03 | 92 | 1016.7 |
| 20260906132820 | 16 | 39 | 0.0 | 1.6 | 0.00 | 0.03 | 0.03 | 92 | 1016.2 |
| 20260906132315 | 16 | 46 | 0.0 | 1.6 | 0.00 | 0.03 | 0.03 | 92 | 1016.2 |
| 20260906131810 | 16 | 53 | 0.0 | 0.0 | 0.00 | 0.03 | 0.03 | 91 | 1016.0 |
| 20260906131306 | 17 | 57 | 0.0 | 0.0 | 0.00 | 0.03 | 0.03 | 90 | 1016.5 |
| 20260906130801 | 17 | 72 | 0.0 | 0.0 | 0.00 | 0.03 | 0.03 | 89 | 1016.3 |
| 20260906130256 | 17 | 77 | 4.8 | 4.8 | 0.00 | 0.03 | 0.03 | 87 | 1016.3 |
| 20260906125754 | 17 | 70 | 3.2 | 3.2 | 0.00 | 0.03 | 0.03 | 88 | 1016.5 |
| 20260906125253 | 17 | 103 | 3.2 | 3.2 | 0.00 | 0.03 | 0.03 | 88 | 1016.1 |
| 20260906124753 | 16 | 138 | 8.0 | 9.7 | 0.00 | 0.03 | 0.03 | 90 | 1015.9 |
| 20260906124249 | 16 | 143 | 6.4 | 8.0 | 0.00 | 0.03 | 0.03 | 89 | 1016.0 |
| 20260906123747 | 16 | 140 | 4.8 | 4.8 | 0.00 | 0.03 | 0.03 | 89 | 1015.7 |
| 20260906123243 | 16 | 106 | 1.6 | 1.6 | 0.00 | 0.03 | 0.03 | 90 | 1015.9 |
| 20260906122742 | 16 | 93 | 0.0 | 0.0 | 0.00 | 0.03 | 0.03 | 89 | 1016.2 |
| 20260906122237 | 16 | 115 | 4.8 | 4.8 | 0.00 | 0.03 | 0.03 | 90 | 1015.8 |
| 20260906121734 | 16 | 115 | 0.0 | 0.0 | 0.00 | 0.03 | 0.03 | 91 | 1015.9 |
| 20260906121230 | 16 | 118 | 0.0 | 0.0 | 0.00 | 0.03 | 0.03 | 89 | 1015.9 |
| 20260906120725 | 16 | 109 | 0.0 | 0.0 | 0.00 | 0.03 | 0.03 | 91 | 1015.9 |
| 20260906120222 | 16 | 71 | 0.0 | 0.0 | 0.00 | 0.03 | 0.03 | 91 | 1015.7 |
| 20260906115718 | 16 | 71 | 0.0 | 0.0 | 0.00 | 0.03 | 0.03 | 91 | 1015.7 |
| 20260906115213 | 16 | 301 | 1.6 | 1.6 | 0.00 | 0.03 | 0.03 | 91 | 1015.8 |
| 20260906114711 | 16 | 251 | 3.2 | 3.2 | 0.00 | 0.03 | 0.03 | 89 | 1015.7 |
| 20260906114207 | 16 | 143 | 1.6 | 1.6 | 0.00 | 0.03 | 0.03 | 89 | 1015.8 |
| 20260906113702 | 16 | 127 | 6.4 | 8.0 | 0.00 | 0.03 | 0.03 | 88 | 1015.5 |
| 20260906113201 | 16 | 175 | 6.4 | 8.0 | 0.00 | 0.03 | 0.03 | 88 | 1015.7 |
| 20260906112701 | 16 | 155 | 4.8 | 8.0 | 0.00 | 0.03 | 0.03 | 88 | 1015.7 |
| 20260906112158 | 17 | 162 | 4.8 | 4.8 | 0.00 | 0.03 | 0.03 | 88 | 1015.9 |
| 20260906111657 | 17 | 211 | 3.2 | 3.2 | 0.00 | 0.03 | 0.03 | 86 | 1016.0 |
| 20260906111152 | 17 | 75 | 6.4 | 8.0 | 0.00 | 0.03 | 0.03 | 86 | 1015.3 |
| 20260906110647 | 17 | 226 | 1.6 | 3.2 | 0.00 | 0.03 | 0.03 | 86 | 1015.7 |
| 20260906110142 | 17 | 69 | 0.0 | 1.6 | 0.13 | 0.03 | 0.03 | 86 | 1015.7 |
| 20260906105636 | 17 | 56 | 4.8 | 4.8 | 0.13 | 0.03 | 0.03 | 85 | 1015.1 |
| 20260906105133 | 16 | 7 | 0.0 | 0.0 | 0.00 | 0.00 | 0.00 | 90 | 1015.3 |
| 20260906104632 | 16 | 337 | 6.4 | 8.0 | 0.00 | 0.00 | 0.00 | 90 | 1015.4 |
| 20260906104131 | 17 | 331 | 6.4 | 8.0 | 0.00 | 0.00 | 0.00 | 89 | 1015.5 |
| 20260906103629 | 17 | 149 | 1.6 | 3.2 | 0.00 | 0.00 | 0.00 | 88 | 1015.1 |
| 20260906103125 | 17 | 190 | 3.2 | 3.2 | 0.00 | 0.00 | 0.00 | 88 | 1015.1 |
| 20260906102620 | 17 | 119 | 0.0 | 0.0 | 0.00 | 0.00 | 0.00 | 88 | 1015.2 |
| 20260906102115 | 17 | 171 | 1.6 | 1.6 | 0.00 | 0.00 | 0.00 | 87 | 1014.9 |
| 20260906101614 | 17 | 141 | 0.0 | 0.0 | 0.00 | 0.00 | 0.00 | 87 | 1014.7 |
| 20260906101109 | 17 | 141 | 4.8 | 4.8 | 0.00 | 0.00 | 0.00 | 87 | 1014.9 |
| 20260906100605 | 17 | 172 | 4.8 | 4.8 | 0.00 | 0.00 | 0.00 | 84 | 1015.2 |
| 20260906100105 | 17 | 110 | 0.0 | 0.0 | 0.00 | 0.00 | 0.00 | 83 | 1015.3 |
| 20260906095604 | 17 | 91 | 0.0 | 0.0 | 0.00 | 0.00 | 0.00 | 84 | 1015.3 |
| 20260906095100 | 17 | 94 | 1.6 | 3.2 | 0.00 | 0.00 | 0.00 | 84 | 1015.0 |
| 20260906094559 | 17 | 121 | 6.4 | 8.0 | 0.00 | 0.00 | 0.00 | 83 | 1015.2 |
| 20260906094055 | 17 | 153 | 6.4 | 8.0 | 0.00 | 0.00 | 0.00 | 84 | 1015.2 |
| 20260906093550 | 17 | 166 | 4.8 | 4.8 | 0.00 | 0.00 | 0.00 | 84 | 1015.0 |
| 20260906093045 | 17 | 175 | 4.8 | 4.8 | 0.00 | 0.00 | 0.00 | 81 | 1014.9 |
| 20260906092540 | 17 | 116 | 0.0 | 1.6 | 0.00 | 0.00 | 0.00 | 81 | 1014.7 |
| 20260906092035 | 18 | 122 | 4.8 | 4.8 | 0.00 | 0.00 | 0.00 | 79 | 1014.6 |
| 20260906091531 | 18 | 115 | 6.4 | 11.3 | 0.00 | 0.00 | 0.00 | 79 | 1014.4 |
| 20260906091027 | 18 | 69 | 12.9 | 17.7 | 0.00 | 0.00 | 0.00 | 79 | 1014.2 |
| 20260906090522 | 18 | 75 | 12.9 | 14.5 | 0.00 | 0.00 | 0.00 | 79 | 1014.2 |
| 20260906090017 | 17 | 144 | 9.7 | 12.9 | 0.00 | 0.00 | 0.00 | 80 | 1014.5 |
| 20260906085516 | 17 | 76 | 14.5 | 16.1 | 0.00 | 0.00 | 0.00 | 79 | 1014.2 |
| 20260906085015 | 18 | 125 | 9.7 | 12.9 | 0.00 | 0.00 | 0.00 | 79 | 1014.5 |
| 20260906084510 | 17 | 101 | 6.4 | 11.3 | 0.00 | 0.00 | 0.00 | 81 | 1014.7 |
| 20260906084009 | 17 | 66 | 6.4 | 9.7 | 0.00 | 0.00 | 0.00 | 79 | 1015.1 |
| 20260906083505 | 17 | 140 | 9.7 | 11.3 | 0.00 | 0.00 | 0.00 | 79 | 1015.3 |
| 20260906083004 | 18 | 169 | 17.7 | 17.7 | 0.00 | 0.00 | 0.00 | 81 | 1015.3 |
| 20260906082459 | 18 | 62 | 14.5 | 14.5 | 0.00 | 0.00 | 0.00 | 77 | 1015.0 |
| 20260906081955 | 18 | 76 | 16.1 | 20.9 | 0.00 | 0.00 | 0.00 | 78 | 1014.7 |
| 20260906081450 | 18 | 67 | 12.9 | 17.7 | 0.00 | 0.00 | 0.00 | 78 | 1015.0 |
| 20260906080946 | 18 | 76 | 17.7 | 22.5 | 0.00 | 0.00 | 0.00 | 78 | 1014.9 |
| 20260906080442 | 17 | 67 | 11.3 | 16.1 | 0.00 | 0.00 | 0.00 | 80 | 1014.6 |
| 20260906075937 | 17 | 69 | 12.9 | 14.5 | 0.00 | 0.00 | 0.00 | 81 | 1014.5 |
| 20260906075432 | 17 | 76 | 12.9 | 17.7 | 0.00 | 0.00 | 0.00 | 81 | 1015.0 |
| 20260906074927 | 17 | 81 | 9.7 | 14.5 | 0.00 | 0.00 | 0.00 | 84 | 1014.5 |
| 20260906074421 | 17 | 74 | 17.7 | 22.5 | 0.00 | 0.00 | 0.00 | 85 | 1015.1 |
| 20260906073920 | 17 | 90 | 11.3 | 14.5 | 0.00 | 0.00 | 0.00 | 87 | 1015.0 |
| 20260906073415 | 16 | 77 | 9.7 | 16.1 | 0.00 | 0.00 | 0.00 | 89 | 1015.3 |
| 20260906072911 | 16 | 68 | 0.0 | 0.0 | 0.00 | 0.00 | 0.00 | 90 | 1015.1 |
| 20260906072406 | 16 | 68 | 11.3 | 16.1 | 0.00 | 0.00 | 0.00 | 89 | 1015.1 |
| 20260906071902 | 16 | 60 | 12.9 | 16.1 | 0.00 | 0.00 | 0.00 | 92 | 1014.7 |
| 20260906071357 | 16 | 60 | 16.1 | 20.9 | 0.00 | 0.00 | 0.00 | 99 | 1014.7 |
| 20260906070853 | 15 | 65 | 14.5 | 20.9 | 0.00 | 0.00 | 0.00 | 99 | 1014.6 |
| 20260906070349 | 15 | 54 | 14.5 | 17.7 | 0.00 | 0.00 | 0.00 | 99 | 1014.9 |
| 20260906065845 | 15 | 63 | 11.3 | 16.1 | 0.00 | 0.00 | 0.00 | 99 | 1015.1 |
| 20260906065344 | 15 | 59 | 17.7 | 22.5 | 0.00 | 0.00 | 0.00 | 99 | 1015.3 |
| 20260906064840 | 15 | 66 | 16.1 | 22.5 | 0.00 | 0.00 | 0.00 | 98 | 1015.4 |
| 20260906064331 | 15 | 62 | 12.9 | 16.1 | 0.00 | 0.00 | 0.00 | 98 | 1015.3 |
| 20260906063831 | 15 | 57 | 19.3 | 24.1 | 0.00 | 0.00 | 0.00 | 98 | 1015.3 |
| 20260906063326 | 15 | 59 | 22.5 | 27.4 | 0.00 | 0.00 | 0.00 | 98 | 1015.3 |
| 20260906062821 | 15 | 74 | 17.7 | 27.4 | 0.00 | 0.00 | 0.00 | 98 | 1015.5 |
| 20260906062320 | 15 | 73 | 25.7 | 35.4 | 0.00 | 0.00 | 0.00 | 98 | 1015.8 |
| 20260906061816 | 15 | 66 | 27.4 | 32.2 | 0.00 | 0.00 | 0.00 | 98 | 1015.7 |
| 20260906061312 | 16 | 69 | 25.7 | 29.0 | 0.00 | 0.00 | 0.00 | 98 | 1015.9 |
| 20260906060807 | 16 | 70 | 19.3 | 32.2 | 0.18 | 0.00 | 0.00 | 98 | 1015.4 |
| 20260906060305 | 16 | 52 | 30.6 | 37.0 | 0.30 | 0.00 | 0.00 | 98 | 1015.8 |
| 20260906055800 | 16 | 52 | 11.3 | 14.5 | 0.43 | 4.11 | 4.11 | 98 | 1015.9 |
| 20260906055255 | 16 | 43 | 8.0 | 12.9 | 0.66 | 4.09 | 4.09 | 98 | 1015.5 |
| 20260906054750 | 16 | 56 | 19.3 | 25.7 | 1.55 | 4.04 | 4.04 | 98 | 1015.4 |
| 20260906054246 | 16 | 71 | 9.7 | 16.1 | 3.00 | 3.99 | 3.99 | 98 | 1015.5 |
| 20260906053743 | 16 | 52 | 14.5 | 20.9 | 2.77 | 3.81 | 3.81 | 98 | 1016.6 |
| 20260906053238 | 15 | 44 | 1.6 | 3.2 | 1.55 | 3.48 | 3.48 | 98 | 1016.6 |
| 20260906052733 | 15 | 67 | 8.0 | 11.3 | 1.98 | 3.35 | 3.35 | 98 | 1016.0 |
| 20260906052229 | 15 | 84 | 14.5 | 17.7 | 1.37 | 3.23 | 3.23 | 98 | 1016.1 |
| 20260906051726 | 15 | 174 | 1.6 | 3.2 | 0.30 | 3.05 | 3.05 | 98 | 1016.5 |
| 20260906051225 | 16 | 136 | 14.5 | 16.1 | 0.13 | 3.00 | 3.00 | 98 | 1016.5 |
| 20260906050721 | 17 | 138 | 14.5 | 17.7 | 0.13 | 3.00 | 3.00 | 98 | 1016.8 |
| 20260906050216 | 17 | 89 | 11.3 | 17.7 | 0.18 | 2.97 | 2.97 | 98 | 1016.6 |
| 20260906045714 | 17 | 105 | 17.7 | 27.4 | 0.30 | 2.97 | 2.97 | 98 | 1017.0 |
| 20260906045209 | 17 | 122 | 11.3 | 12.9 | 0.13 | 2.95 | 2.95 | 98 | 1016.8 |
| 20260906044705 | 17 | 105 | 8.0 | 11.3 | 0.00 | 2.92 | 2.92 | 98 | 1016.2 |
| 20260906044200 | 17 | 116 | 11.3 | 17.7 | 0.00 | 2.92 | 2.92 | 98 | 1016.3 |
| 20260906043656 | 17 | 58 | 12.9 | 14.5 | 0.00 | 2.92 | 2.92 | 98 | 1016.5 |
| 20260906043152 | 17 | 69 | 9.7 | 12.9 | 0.00 | 2.92 | 2.92 | 98 | 1016.3 |
| 20260906042651 | 17 | 73 | 16.1 | 20.9 | 0.18 | 2.92 | 2.92 | 98 | 1016.7 |
| 20260906042151 | 17 | 73 | 22.5 | 27.4 | 0.48 | 2.92 | 2.92 | 98 | 1016.7 |
| 20260906041647 | 17 | 52 | 19.3 | 22.5 | 1.37 | 2.90 | 2.90 | 98 | 1016.3 |
| 20260906041142 | 17 | 59 | 4.8 | 4.8 | 1.37 | 2.84 | 2.84 | 98 | 1016.7 |
| 20260906040637 | 17 | 208 | 4.8 | 4.8 | 0.30 | 2.67 | 2.67 | 98 | 1017.7 |
| 20260906040133 | 17 | 325 | 12.9 | 16.1 | 0.00 | 2.62 | 2.62 | 97 | 1017.8 |
| 20260906035628 | 17 | 351 | 19.3 | 22.5 | 0.30 | 2.62 | 2.62 | 97 | 1016.7 |
| 20260906035124 | 17 | 33 | 17.7 | 22.5 | 1.19 | 2.62 | 2.62 | 97 | 1017.0 |
| 20260906034623 | 17 | 8 | 14.5 | 17.7 | 2.11 | 2.57 | 2.57 | 97 | 1017.6 |
| 20260906034118 | 17 | 347 | 14.5 | 16.1 | 2.77 | 2.44 | 2.44 | 97 | 1018.2 |
| 20260906033614 | 16 | 336 | 19.3 | 22.5 | 5.51 | 2.21 | 2.21 | 97 | 1019.4 |
| 20260906033109 | 16 | 307 | 24.1 | 27.4 | 6.43 | 1.80 | 1.80 | 97 | 1020.3 |
| 20260906032606 | 16 | 301 | 30.6 | 38.6 | 6.43 | 1.19 | 1.19 | 96 | 1019.7 |
| 20260906032105 | 16 | 321 | 59.5 | 66.0 | 3.78 | 0.64 | 0.64 | 96 | 1018.9 |
| 20260906031601 | 17 | 290 | 91.7 | 101.4 | 0.43 | 0.08 | 0.08 | 95 | 1014.7 |
| 20260906031056 | 16 | 321 | 70.8 | 77.2 | 0.00 | 0.00 | 0.00 | 90 | 1015.1 |
| 20260906030555 | 18 | 308 | 53.1 | 62.8 | 0.00 | 0.00 | 0.00 | 79 | 1016.1 |
| 20260906030056 | 21 | 333 | 32.2 | 43.5 | 0.00 | 0.00 | 0.00 | 68 | 1016.7 |
| 20260906025556 | 21 | 315 | 17.7 | 20.9 | 0.00 | 0.00 | 0.00 | 68 | 1016.0 |
| 20260906025054 | 21 | 28 | 16.1 | 17.7 | 0.00 | 0.00 | 0.00 | 68 | 1016.0 |
| 20260906024550 | 21 | 29 | 22.5 | 25.7 | 0.00 | 0.00 | 0.00 | 69 | 1015.5 |
| 20260906024050 | 21 | 41 | 14.5 | 20.9 | 0.00 | 0.00 | 0.00 | 73 | 1014.5 |
| 20260906023546 | 21 | 43 | 22.5 | 35.4 | 0.00 | 0.00 | 0.00 | 71 | 1014.7 |
| 20260906023046 | 21 | 31 | 22.5 | 27.4 | 0.00 | 0.00 | 0.00 | 69 | 1014.2 |
| 20260906022541 | 23 | 38 | 22.5 | 27.4 | 0.00 | 0.00 | 0.00 | 63 | 1014.2 |
| 20260906022037 | 23 | 39 | 8.0 | 9.7 | 0.00 | 0.00 | 0.00 | 59 | 1014.0 |
| 20260906021532 | 23 | 43 | 11.3 | 14.5 | 0.00 | 0.00 | 0.00 | 59 | 1014.2 |
| 20260906021031 | 23 | 64 | 9.7 | 12.9 | 0.00 | 0.00 | 0.00 | 58 | 1014.3 |
| 20260906020531 | 27 | 66 | 8.0 | 16.1 | 0.00 | 0.00 | 0.00 | 49 | 1014.2 |
| 20260906020031 | 27 | 159 | 16.1 | 22.5 | 0.00 | 0.00 | 0.00 | 49 | 1014.1 |
| 20260906015529 | 27 | 132 | 20.9 | 24.1 | 0.00 | 0.00 | 0.00 | 48 | 1013.8 |
| 20260906015024 | 27 | 133 | 17.7 | 22.5 | 0.00 | 0.00 | 0.00 | 48 | 1014.0 |
| 20260906014519 | 26 | 143 | 16.1 | 17.7 | 0.00 | 0.00 | 0.00 | 48 | 1014.1 |
| 20260906014015 | 26 | 146 | 17.7 | 20.9 | 0.00 | 0.00 | 0.00 | 49 | 1013.7 |
| 20260906013510 | 25 | 136 | 11.3 | 16.1 | 0.00 | 0.00 | 0.00 | 48 | 1013.6 |
| 20260906013006 | 25 | 155 | 17.7 | 17.7 | 0.00 | 0.00 | 0.00 | 47 | 1013.5 |
| 20260906012501 | 26 | 155 | 12.9 | 14.5 | 0.00 | 0.00 | 0.00 | 46 | 1013.4 |
| 20260906011959 | 26 | 149 | 14.5 | 14.5 | 0.00 | 0.00 | 0.00 | 42 | 1013.2 |
| 20260906011456 | 26 | 141 | 14.5 | 17.7 | 0.00 | 0.00 | 0.00 | 41 | 1013.0 |
| 20260906010950 | 26 | 160 | 17.7 | 24.1 | 0.00 | 0.00 | 0.00 | 42 | 1012.8 |
| 20260906010446 | 25 | 157 | 16.1 | 20.9 | 0.00 | 0.00 | 0.00 | 44 | 1013.0 |
| 20260906005943 | 25 | 165 | 16.1 | 24.1 | 0.00 | 0.00 | 0.00 | 46 | 1013.5 |
| 20260906005441 | 25 | 148 | 17.7 | 22.5 | 0.00 | 0.00 | 0.00 | 48 | 1013.4 |
| 20260906004940 | 25 | 142 | 16.1 | 17.7 | 0.00 | 0.00 | 0.00 | 47 | 1013.5 |
| 20260906004434 | 25 | 145 | 17.7 | 20.9 | 0.00 | 0.00 | 0.00 | 48 | 1014.0 |
| 20260906003930 | 25 | 168 | 14.5 | 16.1 | 0.00 | 0.00 | 0.00 | 49 | 1014.0 |
| 20260906003430 | 24 | 138 | 17.7 | 22.5 | 0.00 | 0.00 | 0.00 | 51 | 1014.2 |
| 20260906002926 | 23 | 157 | 17.7 | 24.1 | 0.00 | 0.00 | 0.00 | 54 | 1014.2 |
| 20260906002425 | 22 | 147 | 30.6 | 33.8 | 0.00 | 0.00 | 0.00 | 59 | 1014.4 |
| 20260906001920 | 22 | 136 | 24.1 | 29.0 | 0.00 | 0.00 | 0.00 | 60 | 1014.9 |
| 20260906001416 | 23 | 136 | 33.8 | 43.5 | 0.00 | 0.00 | 0.00 | 56 | 1014.7 |
| 20260906000911 | 25 | 142 | 30.6 | 41.8 | 0.00 | 0.00 | 0.00 | 53 | 1014.9 |
| 20260906000406 | 25 | 155 | 27.4 | 33.8 | 0.00 | 0.00 | 0.00 | 53 | 1014.6 |
| 20260905235901 | 26 | 153 | 38.6 | 46.7 | 0.00 | 0.00 | 0.00 | 52 | 1014.3 |
| 20260905235355 | 27 | 160 | 22.5 | 27.4 | 0.00 | 0.00 | 0.00 | 50 | 1014.1 |
| 20260905234850 | 27 | 161 | 27.4 | 32.2 | 0.00 | 0.00 | 0.00 | 52 | 1013.8 |
| 20260905234346 | 27 | 140 | 24.1 | 29.0 | 0.00 | 0.00 | 0.00 | 52 | 1013.4 |
| 20260905233841 | 32 | 172 | 32.2 | 37.0 | 0.00 | 0.00 | 0.00 | 42 | 1013.2 |
| 20260905233335 | 32 | 98 | 17.7 | 22.5 | 0.00 | 0.00 | 0.00 | 40 | 1012.9 |
| 20260905232835 | 32 | 130 | 11.3 | 16.1 | 0.00 | 0.00 | 0.00 | 40 | 1012.8 |
| 20260905232331 | 32 | 136 | 19.3 | 22.5 | 0.00 | 0.00 | 0.00 | 39 | 1012.9 |
| 20260905231826 | 32 | 120 | 17.7 | 25.7 | 0.00 | 0.00 | 0.00 | 39 | 1013.2 |
| 20260905231321 | 32 | 120 | 16.1 | 20.9 | 0.00 | 0.00 | 0.00 | 37 | 1012.8 |
| 20260905230818 | 32 | 123 | 24.1 | 33.8 | 0.00 | 0.00 | 0.00 | 38 | 1012.8 |
| 20260905230316 | 33 | 124 | 22.5 | 27.4 | 0.00 | 0.00 | 0.00 | 37 | 1012.7 |
| 20260905225815 | 32 | 121 | 19.3 | 22.5 | 0.00 | 0.00 | 0.00 | 37 | 1012.7 |
| 20260905225310 | 32 | 139 | 22.5 | 27.4 | 0.00 | 0.00 | 0.00 | 37 | 1012.7 |
| 20260905224810 | 32 | 129 | 17.7 | 25.7 | 0.00 | 0.00 | 0.00 | 38 | 1012.8 |
| 20260905224306 | 32 | 145 | 14.5 | 17.7 | 0.00 | 0.00 | 0.00 | 37 | 1012.8 |
| 20260905223801 | 33 | 152 | 24.1 | 27.4 | 0.00 | 0.00 | 0.00 | 36 | 1012.7 |
| 20260905223258 | 32 | 136 | 20.9 | 29.0 | 0.00 | 0.00 | 0.00 | 36 | 1013.0 |
| 20260905222753 | 32 | 157 | 14.5 | 20.9 | 0.00 | 0.00 | 0.00 | 36 | 1013.2 |
| 20260905222252 | 32 | 135 | 25.7 | 29.0 | 0.00 | 0.00 | 0.00 | 37 | 1013.3 |
| 20260905221748 | 33 | 106 | 17.7 | 22.5 | 0.00 | 0.00 | 0.00 | 34 | 1013.2 |
| 20260905221245 | 32 | 134 | 20.9 | 24.1 | 0.00 | 0.00 | 0.00 | 34 | 1013.2 |
| 20260905220740 | 33 | 124 | 6.4 | 11.3 | 0.00 | 0.00 | 0.00 | 35 | 1013.2 |
| 20260905220236 | 33 | 151 | 17.7 | 22.5 | 0.00 | 0.00 | 0.00 | 35 | 1013.2 |
| 20260905215736 | 33 | 148 | 11.3 | 17.7 | 0.00 | 0.00 | 0.00 | 35 | 1013.2 |
| 20260905215231 | 33 | 127 | 17.7 | 20.9 | 0.00 | 0.00 | 0.00 | 36 | 1013.2 |
| 20260905214721 | 33 | 135 | 12.9 | 14.5 | 0.00 | 0.00 | 0.00 | 36 | 1013.3 |
| 20260905214217 | 33 | 129 | 17.7 | 24.1 | 0.00 | 0.00 | 0.00 | 36 | 1013.3 |
| 20260905213712 | 33 | 128 | 14.5 | 17.7 | 0.00 | 0.00 | 0.00 | 36 | 1013.7 |
| 20260905213208 | 32 | 132 | 14.5 | 22.5 | 0.00 | 0.00 | 0.00 | 38 | 1013.6 |
| 20260905212703 | 33 | 110 | 16.1 | 24.1 | 0.00 | 0.00 | 0.00 | 37 | 1013.8 |
| 20260905212202 | 33 | 111 | 17.7 | 33.8 | 0.00 | 0.00 | 0.00 | 38 | 1014.0 |
| 20260905211656 | 33 | 132 | 14.5 | 14.5 | 0.00 | 0.00 | 0.00 | 37 | 1014.1 |
| 20260905211152 | 33 | 129 | 20.9 | 22.5 | 0.00 | 0.00 | 0.00 | 36 | 1013.8 |